Time;durP1;ratioP1;P1;durP2;ratioP2;P2;SDS_P1;SDS_P2;PMS_P1;PMS_P2;Temp;Humidity;BMP_temperature;BMP_pressure;BME280_temperature;BME280_humidity;BME280_pressure;Samples;Min_cycle;Max_cycle;Signal;HPM_P1;HPM_P2
2021/11/11 00:02:06;;;;;;;8.90;1.80;;;10.20;99.90;;;;;;6265226;23;20270;-88
2021/11/11 00:04:38;;;;;;;6.70;1.60;;;10.10;99.90;;;;;;6271362;22;20174;-89
2021/11/11 00:07:11;;;;;;;9.73;2.00;;;10.10;99.90;;;;;;6271984;22;20259;-84
2021/11/11 00:09:42;;;;;;;8.50;2.23;;;10.00;99.90;;;;;;6272441;22;20187;-86
2021/11/11 00:17:33;;;;;;;13.53;3.77;;;9.90;99.90;;;;;;6211862;23;20191;-86
2021/11/11 00:20:06;;;;;;;13.37;5.53;;;9.80;99.90;;;;;;6212186;23;20180;-85
2021/11/11 00:22:38;;;;;;;18.27;5.90;;;9.80;99.90;;;;;;6210430;23;20217;-84
2021/11/11 00:25:11;;;;;;;11.50;5.73;;;9.80;99.90;;;;;;6193116;23;20265;-86
2021/11/11 00:27:42;;;;;;;16.70;5.40;;;9.80;99.90;;;;;;6203784;23;20153;-83
2021/11/11 00:30:15;;;;;;;16.97;4.10;;;9.80;99.90;;;;;;6208637;23;20177;-83
2021/11/11 00:32:50;;;;;;;8.93;2.43;;;9.80;99.90;;;;;;6232276;22;20259;-82
2021/11/11 00:35:22;;;;;;;8.07;2.20;;;9.70;99.90;;;;;;6272830;22;20176;-86
2021/11/11 00:37:57;;;;;;;7.13;1.90;;;9.70;99.90;;;;;;6273684;23;20176;-84
2021/11/11 00:40:31;;;;;;;7.20;2.00;;;9.70;99.90;;;;;;6270989;23;20194;-85
2021/11/11 00:43:02;;;;;;;8.07;2.00;;;9.70;99.90;;;;;;6272881;22;20257;-83
2021/11/11 00:45:33;;;;;;;9.00;2.10;;;9.70;99.90;;;;;;6265561;23;20180;-84
2021/11/11 00:48:07;;;;;;;8.77;2.33;;;9.60;99.90;;;;;;6266213;22;20171;-84
2021/11/11 00:50:38;;;;;;;9.47;2.40;;;9.50;99.90;;;;;;6270977;23;20172;-82
2021/11/11 00:53:10;;;;;;;9.67;2.17;;;9.50;99.90;;;;;;6268321;23;20183;-85
2021/11/11 00:55:42;;;;;;;9.57;2.40;;;9.50;99.90;;;;;;6266244;23;20186;-86
2021/11/11 00:58:14;;;;;;;10.93;2.10;;;9.50;99.90;;;;;;6266611;23;20186;-85
2021/11/11 01:00:46;;;;;;;6.90;1.77;;;9.40;99.90;;;;;;6267546;23;20168;-85
2021/11/11 01:03:25;;;;;;;7.20;1.87;;;9.40;99.90;;;;;;6266301;23;20212;-85
2021/11/11 01:05:56;;;;;;;5.67;2.30;;;9.40;99.90;;;;;;6264709;23;20179;-85
2021/11/11 01:08:29;;;;;;;6.03;2.13;;;9.40;99.90;;;;;;6261138;23;20175;-85
2021/11/11 01:11:03;;;;;;;9.17;2.07;;;9.40;99.90;;;;;;6265577;23;20156;-85
2021/11/11 01:13:35;;;;;;;5.93;2.20;;;9.30;99.90;;;;;;6268118;23;20186;-84
2021/11/11 01:16:09;;;;;;;11.20;2.77;;;9.30;99.90;;;;;;6266875;23;20160;-84
2021/11/11 01:18:42;;;;;;;7.47;2.27;;;9.30;99.90;;;;;;6266427;23;20222;-85
2021/11/11 01:21:13;;;;;;;12.03;2.67;;;9.30;99.90;;;;;;6266379;23;20168;-83
2021/11/11 01:23:47;;;;;;;7.23;2.63;;;9.30;99.90;;;;;;6255089;23;20192;-84
2021/11/11 01:26:20;;;;;;;11.37;2.50;;;9.20;99.90;;;;;;6266165;23;20175;-84
2021/11/11 01:28:53;;;;;;;11.17;2.50;;;9.20;99.90;;;;;;6266471;23;20186;-83
2021/11/11 01:31:24;;;;;;;9.90;3.20;;;9.10;99.90;;;;;;6251923;23;20622;-85
2021/11/11 01:36:43;;;;;;;11.60;3.20;;;9.10;99.90;;;;;;6274905;22;20229;-82
2021/11/11 01:39:17;;;;;;;11.93;3.20;;;9.00;99.90;;;;;;6267763;23;20198;-84
2021/11/11 01:41:48;;;;;;;11.10;4.03;;;9.00;99.90;;;;;;6266669;23;20170;-84
2021/11/11 01:44:21;;;;;;;11.10;3.90;;;9.00;99.90;;;;;;6266226;23;20222;-84
2021/11/11 01:46:53;;;;;;;6.83;2.80;;;8.90;99.90;;;;;;6263323;23;20178;-84
2021/11/11 01:49:34;;;;;;;10.50;3.30;;;8.90;99.90;;;;;;6266471;23;20229;-83
2021/11/11 01:52:09;;;;;;;9.33;2.50;;;8.80;99.90;;;;;;6263393;22;20175;-83
2021/11/11 01:54:41;;;;;;;7.47;2.30;;;8.80;99.90;;;;;;6271296;22;20175;-88
2021/11/11 01:57:15;;;;;;;11.10;2.80;;;8.80;99.90;;;;;;6243484;22;20172;-88
2021/11/11 01:59:46;;;;;;;8.03;2.97;;;8.80;99.90;;;;;;6265284;22;20174;-88
2021/11/11 02:02:35;;;;;;;8.27;2.43;;;8.80;99.90;;;;;;6268514;22;20255;-88
2021/11/11 02:07:44;;;;;;;14.90;6.03;;;8.60;99.90;;;;;;6241528;22;20221;-87
2021/11/11 02:10:17;;;;;;;10.17;2.77;;;8.60;99.90;;;;;;6262746;23;20201;-88
2021/11/11 02:12:50;;;;;;;9.77;2.43;;;8.60;99.90;;;;;;6257198;23;20211;-88
2021/11/11 02:15:23;;;;;;;7.93;2.13;;;8.50;99.90;;;;;;6262886;23;20194;-87
2021/11/11 02:17:55;;;;;;;7.93;1.97;;;8.50;99.90;;;;;;6263881;23;20190;-88
2021/11/11 02:20:30;;;;;;;7.57;1.70;;;8.40;99.90;;;;;;6269065;23;20201;-89
2021/11/11 02:23:07;;;;;;;3.80;1.53;;;8.40;99.90;;;;;;6270831;23;20198;-88
2021/11/11 02:25:46;;;;;;;5.87;1.80;;;8.40;99.90;;;;;;6245970;22;20179;-87
2021/11/11 02:28:20;;;;;;;5.87;1.47;;;8.40;99.90;;;;;;6265841;23;20179;-88
2021/11/11 02:30:54;;;;;;;6.97;1.93;;;8.40;99.90;;;;;;6265632;23;20175;-88
2021/11/11 02:33:28;;;;;;;7.90;1.70;;;8.40;99.90;;;;;;6262806;23;20203;-89
2021/11/11 02:36:01;;;;;;;6.47;1.87;;;8.40;99.90;;;;;;6264979;23;20163;-88
2021/11/11 02:38:33;;;;;;;7.00;1.67;;;8.30;99.90;;;;;;6264116;23;20219;-88
2021/11/11 02:41:04;;;;;;;4.20;1.40;;;8.30;99.90;;;;;;6268536;23;20176;-87
2021/11/11 02:43:37;;;;;;;4.77;1.50;;;8.40;99.90;;;;;;6265061;23;20612;-88
2021/11/11 02:46:08;;;;;;;5.83;1.73;;;8.40;99.90;;;;;;6264265;23;20178;-89
2021/11/11 02:48:40;;;;;;;5.83;1.50;;;8.40;99.90;;;;;;6265683;23;20168;-88
2021/11/11 02:51:15;;;;;;;4.37;1.20;;;8.40;99.90;;;;;;6264537;23;20175;-88
2021/11/11 02:53:46;;;;;;;3.80;1.20;;;8.40;99.90;;;;;;6263492;23;20226;-87
2021/11/11 02:56:19;;;;;;;5.00;1.53;;;8.50;99.90;;;;;;6263875;23;20228;-93
2021/11/11 02:58:50;;;;;;;6.67;1.30;;;8.50;99.90;;;;;;6262418;23;20167;-90
2021/11/11 03:01:22;;;;;;;7.17;1.90;;;8.50;99.90;;;;;;6264145;23;20186;-88
2021/11/11 03:03:54;;;;;;;5.13;1.40;;;8.60;99.90;;;;;;6263348;23;20199;-90
2021/11/11 03:06:28;;;;;;;4.93;1.50;;;8.50;99.90;;;;;;6263627;23;20175;-90
2021/11/11 03:09:00;;;;;;;5.20;2.23;;;8.50;99.90;;;;;;6264015;23;20203;-90
2021/11/11 03:11:33;;;;;;;4.70;1.70;;;8.50;99.90;;;;;;6261448;23;20179;-90
2021/11/11 03:14:05;;;;;;;6.83;2.20;;;8.50;99.90;;;;;;6260996;23;20220;-90
2021/11/11 03:16:36;;;;;;;4.63;1.23;;;8.50;99.90;;;;;;6263726;23;20250;-90
2021/11/11 03:19:08;;;;;;;9.50;2.13;;;8.60;99.90;;;;;;6261891;23;20226;-90
2021/11/11 03:21:44;;;;;;;6.63;1.57;;;8.60;99.90;;;;;;6251124;23;20187;-90
2021/11/11 03:24:16;;;;;;;7.27;1.47;;;8.60;99.90;;;;;;6259000;23;20213;-90
2021/11/11 03:26:47;;;;;;;6.63;1.50;;;8.60;99.90;;;;;;6237102;23;20172;-89
2021/11/11 03:29:19;;;;;;;3.97;1.60;;;8.60;99.90;;;;;;6239268;23;20190;-89
2021/11/11 03:31:51;;;;;;;4.17;1.47;;;8.60;99.90;;;;;;6266205;23;20172;-90
2021/11/11 03:34:23;;;;;;;28.43;13.37;;;8.50;99.90;;;;;;6251348;23;20168;-89
2021/11/11 03:36:58;;;;;;;10.47;3.60;;;8.50;99.90;;;;;;6248328;23;20175;-90
2021/11/11 03:42:27;;;;;;;3.73;1.53;;;8.50;99.90;;;;;;6266415;23;20190;-91
2021/11/11 03:44:59;;;;;;;4.87;1.60;;;8.40;99.90;;;;;;6259134;23;20246;-93
2021/11/11 03:47:31;;;;;;;5.43;2.03;;;8.50;99.90;;;;;;6271044;22;20168;-93
2021/11/11 03:52:40;;;;;;;5.53;2.07;;;8.40;99.90;;;;;;6293413;22;20185;-91
2021/11/11 03:55:14;;;;;;;4.77;2.17;;;8.40;99.90;;;;;;6294327;22;20167;-90
2021/11/11 03:57:46;;;;;;;7.53;2.10;;;8.40;99.90;;;;;;6296122;22;20186;-91
2021/11/11 04:00:19;;;;;;;3.93;1.50;;;8.30;99.90;;;;;;6288353;22;20175;-92
2021/11/11 04:02:51;;;;;;;4.27;2.00;;;8.30;99.90;;;;;;6291097;22;20174;-91
2021/11/11 04:05:22;;;;;;;2.93;1.60;;;8.30;99.90;;;;;;6298410;22;20241;-92
2021/11/11 04:07:56;;;;;;;4.40;1.80;;;8.30;99.90;;;;;;6295445;22;20189;-90
2021/11/11 04:10:30;;;;;;;3.77;1.70;;;8.30;99.90;;;;;;6293501;22;20186;-91
2021/11/11 04:13:17;;;;;;;4.50;1.40;;;8.10;99.90;;;;;;6297242;22;20195;-91
2021/11/11 04:15:48;;;;;;;3.50;1.47;;;8.00;99.90;;;;;;6285879;22;20170;-91
2021/11/11 04:18:20;;;;;;;3.40;1.47;;;8.00;99.90;;;;;;6274858;22;20174;-89
2021/11/11 04:20:52;;;;;;;7.50;1.67;;;8.00;99.90;;;;;;6300412;22;20179;-90
2021/11/11 04:23:25;;;;;;;7.27;1.57;;;8.00;99.90;;;;;;6288051;22;20190;-89
2021/11/11 04:26:03;;;;;;;5.03;1.63;;;8.00;99.90;;;;;;6298441;22;20238;-89
2021/11/11 04:28:38;;;;;;;6.47;1.90;;;8.00;99.90;;;;;;6288681;22;20183;-90
2021/11/11 04:31:15;;;;;;;5.17;1.50;;;7.90;99.90;;;;;;6294957;22;20175;-89
2021/11/11 04:33:48;;;;;;;4.47;1.50;;;7.90;99.90;;;;;;6294032;22;20193;-90
2021/11/11 04:36:35;;;;;;;4.33;1.60;;;7.90;99.90;;;;;;6298387;22;20179;-90
2021/11/11 04:39:22;;;;;;;3.20;1.60;;;7.80;99.90;;;;;;6291718;22;20170;-90
2021/11/11 04:42:13;;;;;;;2.03;1.40;;;7.80;99.90;;;;;;6301766;22;20218;-90
2021/11/11 04:45:04;;;;;;;3.23;1.77;;;7.80;99.90;;;;;;6297362;22;20271;-89
2021/11/11 04:47:56;;;;;;;4.47;1.80;;;7.80;99.90;;;;;;6294242;22;20178;-91
2021/11/11 05:04:58;;;;;;;5.37;1.27;;;7.90;99.90;;;;;;6233755;23;20732;-90
2021/11/11 05:07:30;;;;;;;2.93;1.30;;;8.00;99.90;;;;;;6256457;23;20206;-89
2021/11/11 05:10:01;;;;;;;3.10;1.50;;;8.00;99.90;;;;;;6257099;23;20180;-90
2021/11/11 05:12:41;;;;;;;2.07;1.00;;;8.00;99.90;;;;;;6261399;23;20540;-90
2021/11/11 05:15:12;;;;;;;4.53;0.93;;;8.00;99.90;;;;;;6264168;23;20183;-90
2021/11/11 05:17:45;;;;;;;2.37;1.40;;;8.00;99.90;;;;;;6259407;22;20172;-89
2021/11/11 05:20:17;;;;;;;5.33;1.50;;;8.00;99.90;;;;;;6256670;23;20233;-90
2021/11/11 05:22:50;;;;;;;2.47;1.03;;;8.00;99.90;;;;;;6223899;23;20232;-90
2021/11/11 05:25:21;;;;;;;4.67;1.00;;;8.00;99.90;;;;;;6248832;23;20208;-90
2021/11/11 05:27:54;;;;;;;3.57;1.07;;;8.10;99.90;;;;;;6249930;23;20182;-89
2021/11/11 05:30:25;;;;;;;2.07;0.83;;;8.10;99.90;;;;;;6250109;23;20172;-89
2021/11/11 05:32:56;;;;;;;3.67;1.20;;;8.00;99.90;;;;;;6249531;23;20637;-89
2021/11/11 05:35:28;;;;;;;4.40;1.20;;;8.00;99.90;;;;;;6249525;23;20190;-90
2021/11/11 05:37:59;;;;;;;2.23;1.00;;;8.00;99.90;;;;;;6224299;23;20179;-90
2021/11/11 05:40:32;;;;;;;3.83;1.03;;;8.00;99.90;;;;;;6250030;23;20179;-89
2021/11/11 05:43:05;;;;;;;4.23;1.47;;;7.90;99.90;;;;;;6250222;23;20198;-89
2021/11/11 05:45:36;;;;;;;3.17;1.00;;;7.90;99.90;;;;;;6248669;23;20206;-89
2021/11/11 05:48:07;;;;;;;4.37;1.03;;;8.00;99.90;;;;;;6254004;23;20248;-89
2021/11/11 05:50:39;;;;;;;3.40;1.13;;;8.00;99.90;;;;;;6228845;23;20187;-90
2021/11/11 05:53:10;;;;;;;2.97;1.30;;;8.00;99.90;;;;;;6249840;23;20244;-90
2021/11/11 05:55:42;;;;;;;3.37;0.93;;;8.00;99.90;;;;;;6259967;23;20258;-90
2021/11/11 05:58:15;;;;;;;3.03;1.30;;;8.00;99.90;;;;;;6250079;23;20179;-90
2021/11/11 06:00:46;;;;;;;2.50;0.77;;;8.10;99.90;;;;;;6249299;23;20186;-91
2021/11/11 06:03:18;;;;;;;2.90;1.00;;;8.10;99.90;;;;;;6256309;23;20172;-90
2021/11/11 06:05:49;;;;;;;4.43;1.30;;;8.20;99.90;;;;;;6247912;23;20292;-89
2021/11/11 06:08:20;;;;;;;2.90;1.10;;;8.20;99.90;;;;;;6249122;23;20187;-89
2021/11/11 06:10:51;;;;;;;3.67;1.00;;;8.20;99.90;;;;;;6250235;23;20183;-90
2021/11/11 06:13:25;;;;;;;2.80;1.00;;;8.20;99.90;;;;;;6249074;23;20681;-90
2021/11/11 06:15:56;;;;;;;3.20;1.00;;;8.20;99.90;;;;;;6247937;23;20179;-91
2021/11/11 06:18:29;;;;;;;1.70;0.80;;;8.20;99.90;;;;;;6249751;23;20170;-90
2021/11/11 06:21:02;;;;;;;2.53;0.70;;;8.30;99.90;;;;;;6249461;23;20160;-90
2021/11/11 06:23:36;;;;;;;2.73;1.00;;;8.30;99.90;;;;;;6249142;23;20508;-89
2021/11/11 06:26:08;;;;;;;2.73;0.83;;;8.40;99.90;;;;;;6250992;23;20202;-90
2021/11/11 06:28:42;;;;;;;1.80;0.73;;;8.40;99.90;;;;;;6253596;23;20168;-91
2021/11/11 06:31:13;;;;;;;2.20;0.83;;;8.40;99.90;;;;;;6223407;23;20637;-90
2021/11/11 06:33:45;;;;;;;2.87;0.80;;;8.40;99.90;;;;;;6249226;23;20181;-91
2021/11/11 06:36:17;;;;;;;3.47;0.80;;;8.40;99.90;;;;;;6248048;23;20198;-90
2021/11/11 06:38:49;;;;;;;2.77;0.90;;;8.40;99.90;;;;;;6250216;23;20508;-91
2021/11/11 06:41:20;;;;;;;1.47;0.67;;;8.40;99.90;;;;;;6248208;23;20181;-90
2021/11/11 06:43:54;;;;;;;2.60;0.80;;;8.40;99.90;;;;;;6255605;23;20622;-91
2021/11/11 06:46:25;;;;;;;2.50;1.13;;;8.40;99.90;;;;;;6251011;23;20226;-91
2021/11/11 06:49:01;;;;;;;3.07;0.90;;;8.40;99.90;;;;;;6251959;23;20178;-92
2021/11/11 06:51:34;;;;;;;2.93;0.80;;;8.40;99.90;;;;;;6255821;23;20228;-90
2021/11/11 06:54:05;;;;;;;3.73;0.87;;;8.40;99.90;;;;;;6252089;23;20562;-91
2021/11/11 06:56:37;;;;;;;4.53;1.07;;;8.40;99.90;;;;;;6253074;23;20717;-91
2021/11/11 06:59:10;;;;;;;2.70;1.00;;;8.40;99.90;;;;;;6268028;23;20167;-91
2021/11/11 07:01:42;;;;;;;2.73;1.10;;;8.40;99.90;;;;;;6239933;23;20217;-91
2021/11/11 07:04:13;;;;;;;5.07;0.90;;;8.30;99.90;;;;;;6258440;23;20190;-90
2021/11/11 07:06:45;;;;;;;4.37;1.20;;;8.20;99.90;;;;;;6249999;23;20246;-91
2021/11/11 07:09:16;;;;;;;3.43;1.13;;;8.20;99.90;;;;;;6250562;23;20198;-91
2021/11/11 07:11:47;;;;;;;4.90;1.40;;;8.20;99.90;;;;;;6249337;23;20190;-91
2021/11/11 07:14:20;;;;;;;4.37;1.20;;;8.10;99.90;;;;;;6249659;23;20258;-90
2021/11/11 07:16:53;;;;;;;4.80;1.23;;;8.10;99.90;;;;;;6247874;23;20241;-91
2021/11/11 07:19:24;;;;;;;2.00;0.97;;;8.00;99.90;;;;;;6222968;23;20246;-91
2021/11/11 07:21:57;;;;;;;5.73;1.63;;;7.90;99.90;;;;;;6222550;23;20198;-91
2021/11/11 07:24:30;;;;;;;4.60;1.30;;;7.90;99.90;;;;;;6249282;23;20226;-90
2021/11/11 07:27:01;;;;;;;2.60;1.30;;;7.80;99.90;;;;;;6247260;23;20207;-90
2021/11/11 07:29:34;;;;;;;2.23;1.10;;;7.90;99.90;;;;;;6248665;23;20214;-90
2021/11/11 07:32:07;;;;;;;1.80;0.97;;;7.80;99.90;;;;;;6249104;23;20175;-90
2021/11/11 07:34:38;;;;;;;2.27;0.90;;;7.70;99.90;;;;;;6247050;23;20175;-92
2021/11/11 07:37:10;;;;;;;4.57;0.90;;;7.90;99.90;;;;;;6246745;23;20251;-91
2021/11/11 07:39:42;;;;;;;3.17;0.90;;;7.90;99.90;;;;;;6248344;23;20198;-91
2021/11/11 07:42:14;;;;;;;2.20;0.73;;;7.80;99.90;;;;;;6253571;23;20178;-90
2021/11/11 07:44:47;;;;;;;2.67;1.00;;;7.80;99.90;;;;;;6248291;23;20567;-91
2021/11/11 07:47:26;;;;;;;2.50;1.07;;;7.80;99.90;;;;;;6247218;23;20203;-90
2021/11/11 07:49:59;;;;;;;4.97;1.20;;;7.70;99.90;;;;;;6247875;23;20235;-90
2021/11/11 07:52:31;;;;;;;2.10;1.03;;;7.70;99.90;;;;;;6249578;23;20207;-91
2021/11/11 07:55:03;;;;;;;1.43;0.87;;;7.70;99.90;;;;;;6248634;23;20683;-92
2021/11/11 07:57:36;;;;;;;2.77;1.20;;;7.70;99.90;;;;;;6248638;23;20175;-91
2021/11/11 08:00:14;;;;;;;2.37;1.00;;;7.70;99.90;;;;;;6249416;23;20176;-91
2021/11/11 08:02:46;;;;;;;3.43;1.00;;;7.80;99.90;;;;;;6248240;23;20175;-91
2021/11/11 08:05:20;;;;;;;3.90;1.10;;;7.70;99.90;;;;;;6248190;23;20634;-91
2021/11/11 08:07:52;;;;;;;2.37;1.03;;;7.60;99.90;;;;;;6247618;23;20566;-91
2021/11/11 08:10:25;;;;;;;5.43;1.40;;;7.70;99.90;;;;;;6248158;23;20183;-91
2021/11/11 08:12:57;;;;;;;3.20;1.40;;;7.60;99.90;;;;;;6248315;23;20196;-91
2021/11/11 08:15:31;;;;;;;8.93;2.00;;;7.60;99.90;;;;;;6248892;22;20210;-91
2021/11/11 08:18:04;;;;;;;6.83;1.70;;;7.60;99.90;;;;;;6248166;23;20911;-91
2021/11/11 08:20:35;;;;;;;7.10;1.33;;;7.60;99.90;;;;;;6248712;23;20185;-91
2021/11/11 08:23:06;;;;;;;3.97;1.30;;;7.60;99.90;;;;;;6248929;23;20449;-91
2021/11/11 08:25:37;;;;;;;5.17;1.53;;;7.70;99.90;;;;;;6248048;23;20573;-90
2021/11/11 08:28:09;;;;;;;3.17;1.60;;;7.70;99.90;;;;;;6247946;23;20194;-91
2021/11/11 08:30:43;;;;;;;4.73;1.50;;;7.70;99.90;;;;;;6223305;23;20176;-91
2021/11/11 08:33:14;;;;;;;4.50;2.00;;;7.70;99.90;;;;;;6248078;23;20182;-90
2021/11/11 08:35:46;;;;;;;5.83;1.87;;;7.70;99.90;;;;;;6246932;23;20183;-91
2021/11/11 08:38:19;;;;;;;6.37;1.60;;;7.70;99.90;;;;;;6248202;23;20171;-89
2021/11/11 08:40:51;;;;;;;4.33;1.90;;;7.60;99.90;;;;;;6247144;23;20175;-88
2021/11/11 08:43:22;;;;;;;5.03;1.90;;;7.60;99.90;;;;;;6247450;23;20194;-90
2021/11/11 08:45:56;;;;;;;6.20;1.90;;;7.60;99.90;;;;;;6220694;23;20226;-90
2021/11/11 08:48:27;;;;;;;6.63;1.70;;;7.60;99.90;;;;;;6248872;23;20516;-90
2021/11/11 08:50:59;;;;;;;5.57;1.20;;;7.50;99.90;;;;;;6248490;23;20669;-90
2021/11/11 08:53:31;;;;;;;4.90;1.40;;;7.60;99.90;;;;;;6266264;23;20198;-89
2021/11/11 08:56:02;;;;;;;5.63;1.33;;;7.60;99.90;;;;;;6259974;23;20191;-90
2021/11/11 08:58:36;;;;;;;6.40;1.50;;;7.50;99.90;;;;;;6250850;23;20178;-89
2021/11/11 09:01:10;;;;;;;3.43;1.50;;;7.50;99.90;;;;;;6253448;23;20176;-90
2021/11/11 09:03:42;;;;;;;3.30;1.17;;;7.50;99.90;;;;;;6250334;23;20634;-90
2021/11/11 09:06:13;;;;;;;3.63;1.40;;;7.60;99.90;;;;;;6249597;23;20665;-91
2021/11/11 09:08:44;;;;;;;6.27;1.57;;;7.50;99.90;;;;;;6256294;23;20200;-91
2021/11/11 09:11:17;;;;;;;3.70;1.30;;;7.50;99.90;;;;;;6269302;23;20199;-90
2021/11/11 09:13:48;;;;;;;4.27;1.40;;;7.50;99.90;;;;;;6267472;23;20183;-91
2021/11/11 09:16:25;;;;;;;5.13;1.40;;;7.50;99.90;;;;;;6230049;23;20281;-91
2021/11/11 09:18:57;;;;;;;2.93;1.37;;;7.50;99.90;;;;;;6231782;22;20218;-91
2021/11/11 09:21:29;;;;;;;2.43;1.20;;;7.60;99.90;;;;;;6219972;23;20505;-91
2021/11/11 09:24:00;;;;;;;3.60;1.20;;;7.60;99.90;;;;;;6222308;23;20176;-91
2021/11/11 09:26:31;;;;;;;3.47;1.43;;;7.60;99.90;;;;;;6221417;23;20484;-91
2021/11/11 09:29:03;;;;;;;1.57;1.00;;;7.60;99.90;;;;;;6219009;23;20176;-91
2021/11/11 09:31:38;;;;;;;4.83;1.00;;;7.50;99.90;;;;;;6193889;23;20602;-90
2021/11/11 09:34:09;;;;;;;2.60;1.40;;;7.50;99.90;;;;;;6219453;23;20188;-88
2021/11/11 09:36:42;;;;;;;1.53;0.73;;;7.60;99.90;;;;;;6218759;23;20173;-90
2021/11/11 09:39:13;;;;;;;2.70;0.90;;;7.70;99.90;;;;;;6220073;23;20167;-89
2021/11/11 09:41:44;;;;;;;2.97;0.83;;;7.80;99.90;;;;;;6219603;23;20243;-90
2021/11/11 09:44:24;;;;;;;3.13;0.70;;;7.70;99.90;;;;;;6218348;23;20178;-91
2021/11/11 09:46:58;;;;;;;1.23;0.80;;;7.70;99.90;;;;;;6219016;23;20242;-91
2021/11/11 09:49:31;;;;;;;1.93;0.73;;;7.70;99.90;;;;;;6219508;23;20444;-90
2021/11/11 09:52:03;;;;;;;0.87;0.67;;;7.70;99.90;;;;;;6218969;23;20616;-91
2021/11/11 10:00:10;;;;;;;4.27;1.53;;;7.80;99.90;;;;;;6221278;23;20204;-91
2021/11/11 10:02:43;;;;;;;1.67;0.57;;;7.90;99.90;;;;;;6218659;23;20226;-90
2021/11/11 10:05:15;;;;;;;2.73;1.00;;;7.90;99.90;;;;;;6220811;23;20206;-91
2021/11/11 10:07:48;;;;;;;1.90;1.03;;;8.00;99.90;;;;;;6219393;23;20222;-91
2021/11/11 10:10:37;;;;;;;1.17;0.87;;;8.00;99.90;;;;;;6219970;23;20198;-91
2021/11/11 10:13:16;;;;;;;5.70;1.57;;;8.00;99.90;;;;;;6219078;23;20187;-91
2021/11/11 10:16:04;;;;;;;2.10;1.10;;;8.00;99.90;;;;;;6217637;23;20204;-90
2021/11/11 10:18:51;;;;;;;4.13;1.00;;;8.00;99.90;;;;;;6222278;23;20600;-91
2021/11/11 10:21:40;;;;;;;1.53;0.90;;;8.00;99.90;;;;;;6249320;23;20168;-91
2021/11/11 10:24:20;;;;;;;2.83;0.97;;;8.00;99.90;;;;;;6251502;23;20175;-90
2021/11/11 10:26:54;;;;;;;2.27;0.87;;;8.00;99.90;;;;;;6248908;23;20214;-90
2021/11/11 10:29:32;;;;;;;1.43;0.90;;;7.90;99.90;;;;;;6254791;23;20191;-91
2021/11/11 10:32:07;;;;;;;2.47;1.10;;;7.90;99.90;;;;;;6249835;23;20171;-90
2021/11/11 10:34:49;;;;;;;2.40;1.20;;;7.90;99.90;;;;;;6249423;23;20483;-91
2021/11/11 10:37:23;;;;;;;2.27;1.03;;;7.80;99.90;;;;;;6241690;23;20237;-91
2021/11/11 10:40:03;;;;;;;2.47;1.20;;;7.80;99.90;;;;;;6249157;23;20231;-91
2021/11/11 10:42:37;;;;;;;1.40;1.00;;;7.90;99.90;;;;;;6248437;23;20206;-91
2021/11/11 10:45:11;;;;;;;2.50;1.00;;;7.80;99.90;;;;;;6247898;23;20209;-92
2021/11/11 10:47:46;;;;;;;2.43;0.90;;;7.90;99.90;;;;;;6249041;23;20205;-91
2021/11/11 10:50:22;;;;;;;1.53;1.00;;;7.90;99.90;;;;;;6250764;23;20198;-91
2021/11/11 10:52:55;;;;;;;1.87;1.03;;;7.90;99.90;;;;;;6252126;23;20175;-90
2021/11/11 10:55:29;;;;;;;3.03;0.80;;;8.00;99.90;;;;;;6250714;23;20199;-90
2021/11/11 10:58:06;;;;;;;1.87;1.00;;;8.00;99.90;;;;;;6251377;23;20180;-90
2021/11/11 11:00:49;;;;;;;1.03;0.87;;;8.00;99.90;;;;;;6251810;23;20183;-91
2021/11/11 11:03:22;;;;;;;2.57;1.10;;;8.10;99.90;;;;;;6252355;23;20743;-91
2021/11/11 11:05:58;;;;;;;1.87;0.80;;;8.10;99.90;;;;;;6252310;23;20168;-91
2021/11/11 11:08:30;;;;;;;1.73;0.77;;;8.10;99.90;;;;;;6252288;23;20225;-91
2021/11/11 11:11:04;;;;;;;1.43;0.87;;;8.10;99.90;;;;;;6251820;23;20175;-92
2021/11/11 11:13:38;;;;;;;1.97;0.70;;;8.10;99.90;;;;;;6252050;23;20179;-91
2021/11/11 11:16:10;;;;;;;3.50;0.90;;;8.10;99.90;;;;;;6252251;23;20199;-91
2021/11/11 11:18:45;;;;;;;1.17;0.80;;;8.10;99.90;;;;;;6253653;23;20241;-90
2021/11/11 11:21:20;;;;;;;2.00;0.73;;;8.10;99.90;;;;;;6227417;23;20190;-91
2021/11/11 11:23:55;;;;;;;1.90;0.93;;;8.20;99.90;;;;;;6239483;22;20218;-92
2021/11/11 11:26:30;;;;;;;2.20;0.80;;;8.20;99.90;;;;;;6269516;23;20213;-91
2021/11/11 11:29:08;;;;;;;3.20;0.80;;;8.20;99.90;;;;;;6241873;23;20257;-91
2021/11/11 11:31:49;;;;;;;3.40;0.67;;;8.20;99.90;;;;;;6255033;23;20186;-91
2021/11/11 11:34:23;;;;;;;1.73;0.50;;;8.20;99.90;;;;;;6258895;23;20241;-91
2021/11/11 11:37:00;;;;;;;1.40;0.87;;;8.20;99.90;;;;;;6252709;23;20182;-91
2021/11/11 11:39:34;;;;;;;0.70;0.67;;;8.20;99.90;;;;;;6251364;23;20202;-91
2021/11/11 11:42:09;;;;;;;1.10;0.57;;;8.20;99.90;;;;;;6249856;23;20194;-91
2021/11/11 11:44:43;;;;;;;1.10;0.50;;;8.30;99.90;;;;;;6249216;23;20232;-91
2021/11/11 11:47:22;;;;;;;1.80;0.70;;;8.20;99.90;;;;;;6249505;23;20184;-91
2021/11/11 11:49:58;;;;;;;0.70;0.33;;;8.30;99.90;;;;;;6250508;23;20720;-91
2021/11/11 11:52:34;;;;;;;1.50;0.60;;;8.30;99.90;;;;;;6250578;23;20169;-90
2021/11/11 11:55:10;;;;;;;1.47;0.40;;;8.30;99.90;;;;;;6249499;23;20459;-91
2021/11/11 11:57:53;;;;;;;0.93;0.50;;;8.30;99.90;;;;;;6251273;23;20197;-91
2021/11/11 12:00:43;;;;;;;1.90;0.50;;;8.30;99.90;;;;;;6227684;23;20194;-90
2021/11/11 12:03:28;;;;;;;1.37;0.40;;;8.30;99.90;;;;;;6251709;23;20178;-90
2021/11/11 12:06:21;;;;;;;0.63;0.40;;;8.40;99.90;;;;;;6250412;23;20177;-90
2021/11/11 12:09:13;;;;;;;0.70;0.47;;;8.30;99.90;;;;;;6248224;23;20673;-91
2021/11/11 12:12:10;;;;;;;1.07;0.40;;;8.20;99.90;;;;;;6251797;23;20530;-90
2021/11/11 12:14:46;;;;;;;1.23;0.50;;;8.20;99.90;;;;;;6249444;23;20204;-91
2021/11/11 12:17:35;;;;;;;1.70;0.30;;;8.30;99.90;;;;;;6247589;23;20258;-91
2021/11/11 12:40:29;;;;;;;0.33;0.20;;;8.30;99.90;;;;;;6251094;23;20559;-90
2021/11/11 12:43:15;;;;;;;2.83;0.30;;;8.30;99.90;;;;;;6251032;23;20167;-91
2021/11/11 12:45:47;;;;;;;0.93;0.20;;;8.30;99.90;;;;;;6249972;23;20179;-90
2021/11/11 12:48:24;;;;;;;2.13;0.23;;;8.30;99.90;;;;;;6250958;23;20664;-91
2021/11/11 12:51:05;;;;;;;0.30;0.20;;;8.30;99.90;;;;;;6251283;23;20164;-91
2021/11/11 12:53:56;;;;;;;3.97;0.20;;;8.30;99.90;;;;;;6250596;23;20175;-91
2021/11/11 12:56:36;;;;;;;1.40;0.20;;;8.30;99.90;;;;;;6250275;23;20199;-91
2021/11/11 12:59:15;;;;;;;0.63;0.10;;;8.20;99.90;;;;;;6250651;23;20195;-91
2021/11/11 13:02:05;;;;;;;0.60;0.30;;;8.30;99.90;;;;;;6251154;23;20591;-91
2021/11/11 13:04:49;;;;;;;0.40;0.30;;;8.30;99.90;;;;;;6251501;23;20254;-91
2021/11/11 13:07:32;;;;;;;0.20;0.10;;;8.40;99.90;;;;;;6250751;23;20558;-91
2021/11/11 13:10:09;;;;;;;5.87;0.50;;;8.40;99.90;;;;;;6251606;23;20192;-91
2021/11/11 13:12:41;;;;;;;0.77;0.20;;;8.40;99.90;;;;;;6250602;23;20178;-90
2021/11/11 13:15:16;;;;;;;1.87;0.30;;;8.40;99.90;;;;;;6249413;23;20175;-90
2021/11/11 13:17:51;;;;;;;0.30;0.30;;;8.50;99.90;;;;;;6250676;23;20190;-91
2021/11/11 13:20:35;;;;;;;0.20;0.20;;;8.50;99.90;;;;;;6224104;23;20204;-90
2021/11/11 13:23:23;;;;;;;0.73;0.20;;;8.50;99.90;;;;;;6251166;23;20230;-91
2021/11/11 13:26:19;;;;;;;0.20;0.20;;;8.50;99.90;;;;;;6251729;23;20183;-90
2021/11/11 14:00:41;;;;;;;0.30;0.30;;;8.50;99.90;;;;;;5118420;28;20582;-91
2021/11/11 14:03:40;;;;;;;1.60;0.40;;;8.50;99.90;;;;;;5116780;28;20202;-91
2021/11/11 15:15:10;;;;;;;0.60;0.60;;;8.50;99.90;;;;;;5098005;28;20204;-91
2021/11/11 15:17:57;;;;;;;1.00;0.73;;;8.60;99.90;;;;;;5102074;28;20457;-89
2021/11/11 16:00:27;;;;;;;0.60;0.40;;;8.60;99.90;;;;;;5070317;28;20204;-89
2021/11/11 16:03:13;;;;;;;1.10;0.60;;;8.60;99.90;;;;;;5044842;28;20629;-90
2021/11/11 16:19:58;;;;;;;0.93;0.60;;;8.80;99.90;;;;;;5051671;28;20209;-90
2021/11/11 16:22:35;;;;;;;2.13;0.40;;;8.80;99.90;;;;;;5066424;28;20236;-89
2021/11/11 16:25:14;;;;;;;0.93;0.60;;;8.80;99.90;;;;;;5057844;28;20211;-90
2021/11/11 16:27:45;;;;;;;1.23;0.40;;;8.80;99.90;;;;;;5059375;28;20234;-90
2021/11/11 16:30:21;;;;;;;1.20;0.47;;;8.90;99.90;;;;;;5059470;28;20215;-90
2021/11/11 16:32:53;;;;;;;2.30;0.70;;;8.90;99.90;;;;;;5058474;28;20212;-90
2021/11/11 16:35:28;;;;;;;1.63;0.40;;;8.90;99.90;;;;;;5057735;28;20199;-89
2021/11/11 16:38:00;;;;;;;2.63;0.80;;;8.90;99.90;;;;;;5059205;28;20273;-90
2021/11/11 16:40:32;;;;;;;2.00;0.60;;;8.90;99.90;;;;;;5053745;28;20229;-90
2021/11/11 16:43:04;;;;;;;1.53;0.50;;;8.90;99.90;;;;;;5024146;28;20296;-89
2021/11/11 16:45:37;;;;;;;0.33;0.33;;;8.90;99.90;;;;;;5059026;28;20571;-89
2021/11/11 16:48:09;;;;;;;2.20;0.50;;;8.90;99.90;;;;;;5058580;28;20231;-90
2021/11/11 16:50:42;;;;;;;0.50;0.40;;;8.90;99.90;;;;;;5059035;28;20203;-89
2021/11/11 16:53:13;;;;;;;0.53;0.30;;;8.90;99.90;;;;;;5057216;28;20208;-90
2021/11/11 16:55:44;;;;;;;0.60;0.50;;;8.90;99.90;;;;;;5063771;28;20205;-89
2021/11/11 16:58:15;;;;;;;1.20;0.37;;;8.90;99.90;;;;;;5046919;28;20240;-90
2021/11/11 17:00:49;;;;;;;0.93;0.37;;;9.00;99.90;;;;;;5041991;28;20212;-89
2021/11/11 17:03:21;;;;;;;1.50;0.73;;;9.00;99.90;;;;;;5049624;28;20272;-89
2021/11/11 17:05:54;;;;;;;18.33;7.57;;;9.10;99.90;;;;;;5059108;28;20891;-89